Hlavní strana
METAR-TAF:

METAR-TAF

Letiště :

Gastonia Municipal Airport

Gastonia, Severní Karolína, Spojené státy americké

zeměpisná šířka: 35-11-48N, zeměpisná délka: 081-09-21W, výška: 243 m

Aktuální stav počasí

Zpráva byla vytvořena před 1 hodinou a 8 minutami, v 04:54 UTC
Jihozápadní vítr 5 kt
Teplota 9°C
Vlhkost vzduchu 87%
Tlak 1013 hPa
Viditelnost: 8.0 km
Zataženo ve výšce 300 ft
kouřmo

METAR: KAKH 250454Z AUTO 23005KT 5SM BR OVC003 09/07 A2991 RMK AO2 SLP131 T00890067 401440039

Čas: 01:02 (06:02 UTC)


TAF: chybějící

Stav a předpovědi počasí z více než 4 000 letišť (zprávy METAR a TAF).

Červené a žluté tečky na mapě představují dostupné meteorologické stanice.

Když kurzor umístíte na tečku, zobrazí se název stanice.

Pak kliknutím zobrazíte stav a předpověď počasí.

Chcete-li změnit mapu, kliknutím na zelené tlačítko se znaménkem +mapu přiblížíte, kliknutím na zelené tlačítko se znaménkem – mapu oddálíte a kliknutím na zelené šipky přejdete na sousední mapy.


METAR-TAF: